Time;durP1;ratioP1;P1;durP2;ratioP2;P2;SDS_P1;SDS_P2;PMS_P1;PMS_P2;Temp;Humidity;BMP_temperature;BMP_pressure;BME280_temperature;BME280_humidity;BME280_pressure;Samples;Min_cycle;Max_cycle;Signal;HPM_P1;HPM_P2
2023/05/24 00:01:06;;;;;;;6.40;4.90;;;;;;;18.92;79.83;99017.52;79220;1301;3012901;-60
2023/05/24 00:03:38;;;;;;;7.30;5.30;;;;;;;19.38;78.50;99020.80;77996;1303;3053417;-60
2023/05/24 00:06:05;;;;;;;11.30;7.00;;;;;;;19.79;76.36;99026.79;79223;1298;3013433;-61
2023/05/24 00:08:34;;;;;;;12.00;7.80;;;;;;;19.80;76.14;99029.77;78096;1304;3050905;-60
2023/05/24 00:11:01;;;;;;;15.00;8.50;;;;;;;19.59;76.78;99029.22;79396;1300;3018429;-61
2023/05/24 00:13:29;;;;;;;9.90;8.20;;;;;;;19.36;77.56;99036.40;79254;1296;3013009;-60
2023/05/24 00:15:57;;;;;;;12.20;8.70;;;;;;;19.17;78.58;99037.61;77985;1312;3051337;-58
2023/05/24 00:18:25;;;;;;;13.00;8.90;;;;;;;18.98;79.67;99035.52;79266;1304;3012981;-61
2023/05/24 00:20:52;;;;;;;6.90;5.30;;;;;;;18.82;80.63;99033.73;79168;1296;3011873;-63
2023/05/24 00:23:19;;;;;;;8.50;6.10;;;;;;;19.22;79.62;99032.17;78124;1302;3050698;-60
2023/05/24 00:25:46;;;;;;;10.60;7.00;;;;;;;19.67;77.75;99033.02;79249;1298;3012989;-60
2023/05/24 00:28:13;;;;;;;10.50;8.00;;;;;;;19.68;77.29;99030.58;79201;1298;3011947;-60
2023/05/24 00:30:41;;;;;;;15.10;9.40;;;;;;;19.49;77.67;99033.59;77961;1301;3027214;-59
2023/05/24 00:33:08;;;;;;;11.30;9.10;;;;;;;19.26;78.75;99033.90;79176;1300;3013216;-61
2023/05/24 00:35:34;;;;;;;13.80;9.20;;;;;;;19.08;79.67;99030.11;79255;1295;3013442;-61
2023/05/24 00:38:03;;;;;;;13.60;9.40;;;;;;;18.89;80.27;99031.28;77993;1302;3028983;-59
2023/05/24 00:40:29;;;;;;;9.20;5.70;;;;;;;18.74;81.43;99027.99;79267;1296;3013528;-60
2023/05/24 00:42:56;;;;;;;8.50;6.60;;;;;;;19.14;80.33;99025.69;79191;1301;3011692;-58
2023/05/24 00:45:24;;;;;;;13.50;7.90;;;;;;;19.56;78.51;99027.02;78053;1301;3027806;-60
2023/05/24 00:47:50;;;;;;;11.90;8.40;;;;;;;19.59;78.13;99027.10;79154;1296;3018739;-59
2023/05/24 00:50:17;;;;;;;16.00;9.20;;;;;;;19.46;78.55;99030.78;79200;1301;3011654;-61
2023/05/24 00:52:45;;;;;;;15.40;10.00;;;;;;;19.27;79.29;99033.10;78030;1300;3026445;-60
2023/05/24 00:55:11;;;;;;;13.20;9.50;;;;;;;19.05;80.49;99034.77;79190;1301;3012969;-59
2023/05/24 00:57:38;;;;;;;13.90;10.00;;;;;;;18.88;80.92;99043.46;79254;1295;3011629;-61
2023/05/24 01:00:07;;;;;;;7.90;5.50;;;;;;;18.70;82.23;99043.16;77970;1302;3026042;-60
2023/05/24 01:02:36;;;;;;;9.10;6.40;;;;;;;19.09;81.37;99040.23;79367;1298;3013015;-61
2023/05/24 01:05:06;;;;;;;10.60;7.70;;;;;;;19.53;79.76;99039.63;78693;1301;3013088;-60
2023/05/24 01:07:38;;;;;;;12.00;8.70;;;;;;;19.54;79.14;99036.87;79189;1299;3011698;-62
2023/05/24 01:10:24;;;;;;;14.20;9.90;;;;;;;19.34;79.68;99038.35;78101;1299;3050505;-59
2023/05/24 01:12:59;;;;;;;13.60;9.40;;;;;;;19.09;80.52;99039.71;78149;1296;3056266;-61
2023/05/24 01:15:51;;;;;;;13.00;10.20;;;;;;;18.91;81.38;99039.80;79238;1298;3011817;-61
2023/05/24 01:18:24;;;;;;;10.40;5.90;;;;;;;18.73;82.45;99040.70;77950;1295;3053060;-60
2023/05/24 01:20:58;;;;;;;10.60;7.20;;;;;;;19.21;81.00;99039.23;79287;1298;3011648;-61
2023/05/24 01:23:57;;;;;;;11.20;8.00;;;;;;;19.49;79.35;99036.13;77924;1301;3053521;-61
2023/05/24 01:26:55;;;;;;;12.70;8.90;;;;;;;19.42;79.03;99036.83;77964;1297;3053738;-61
2023/05/24 01:29:22;;;;;;;14.40;8.30;;;;;;;19.19;79.20;99032.53;77969;1298;3070071;-59
2023/05/24 01:31:49;;;;;;;11.00;8.10;;;;;;;18.99;79.53;99030.30;79201;1296;3013008;-62
2023/05/24 01:34:17;;;;;;;8.80;7.40;;;;;;;18.81;79.67;99029.40;79172;1296;3011889;-62
2023/05/24 01:36:47;;;;;;;7.60;6.30;;;;;;;18.63;80.09;99026.48;78045;1300;3053063;-61
2023/05/24 01:39:14;;;;;;;6.00;3.60;;;;;;;18.51;80.50;99029.60;79302;1298;3012517;-62
2023/05/24 01:41:59;;;;;;;7.10;4.70;;;;;;;18.99;79.19;99023.21;79130;1296;3011850;-63
2023/05/24 01:44:35;;;;;;;8.30;4.40;;;;;;;19.51;77.26;99022.48;78021;1303;3068701;-62
2023/05/24 01:47:41;;;;;;;10.70;5.10;;;;;;;19.47;76.42;99018.27;78031;1301;3051477;-59
2023/05/24 01:50:29;;;;;;;9.00;5.50;;;;;;;19.25;76.86;99016.98;77960;1301;3057101;-62
2023/05/24 01:53:03;;;;;;;8.80;5.60;;;;;;;19.00;77.68;99015.64;78051;1297;3049993;-61
2023/05/24 01:55:30;;;;;;;7.80;5.80;;;;;;;18.79;78.46;99016.68;79324;1300;3012935;-62
2023/05/24 01:58:02;;;;;;;9.20;5.00;;;;;;;18.62;79.30;99018.90;78088;1300;3028810;-59
2023/05/24 02:00:30;;;;;;;4.50;3.10;;;;;;;18.50;79.60;99024.44;79458;1297;3012016;-62
2023/05/24 02:02:57;;;;;;;4.20;2.90;;;;;;;18.98;78.45;99029.25;78295;1299;3026063;-62
2023/05/24 02:05:24;;;;;;;5.00;3.10;;;;;;;19.46;76.37;99027.73;79336;1300;3019193;-60
2023/05/24 02:07:51;;;;;;;5.40;3.90;;;;;;;19.53;75.70;99027.23;79284;1300;3011892;-60
2023/05/24 02:10:19;;;;;;;4.90;3.90;;;;;;;19.38;76.15;99027.71;77972;1302;3027834;-60
2023/05/24 02:12:46;;;;;;;5.50;4.40;;;;;;;19.19;76.35;99022.17;79235;1302;3013282;-62
2023/05/24 02:15:13;;;;;;;5.80;4.30;;;;;;;19.00;77.05;99023.29;79209;1295;3011879;-63
2023/05/24 02:17:42;;;;;;;6.80;4.70;;;;;;;18.79;77.87;99020.58;77961;1300;3052888;-58
2023/05/24 02:20:09;;;;;;;5.90;4.70;;;;;;;18.61;78.65;99022.58;79378;1300;3013058;-62
2023/05/24 02:22:36;;;;;;;8.10;2.70;;;;;;;18.43;79.84;99023.62;79158;1295;3011883;-62
2023/05/24 02:25:05;;;;;;;5.60;3.20;;;;;;;18.89;78.65;99023.98;77994;1300;3049548;-61
2023/05/24 02:27:32;;;;;;;7.40;3.90;;;;;;;19.34;76.51;99030.91;79357;1300;3012699;-59
2023/05/24 02:29:59;;;;;;;6.30;3.60;;;;;;;19.42;76.14;99030.30;79283;1300;3013065;-61
2023/05/24 02:32:26;;;;;;;6.20;4.80;;;;;;;19.26;76.29;99033.77;77976;1300;3052943;-61
2023/05/24 02:34:53;;;;;;;7.00;4.90;;;;;;;19.04;76.92;99040.05;79285;1300;3013352;-62
2023/05/24 02:37:20;;;;;;;8.00;5.60;;;;;;;18.88;77.64;99043.49;79138;1297;3012856;-61
2023/05/24 02:39:48;;;;;;;10.40;6.20;;;;;;;18.69;78.42;99047.48;77942;1300;3028844;-58
2023/05/24 02:42:14;;;;;;;6.70;3.80;;;;;;;18.55;79.40;99057.89;79187;1300;3013428;-61
2023/05/24 02:44:41;;;;;;;5.80;3.90;;;;;;;18.97;78.35;99055.49;79166;1300;3012136;-61
2023/05/24 02:47:09;;;;;;;6.40;4.40;;;;;;;19.47;76.40;99057.27;78180;1300;3026221;-60
2023/05/24 02:49:36;;;;;;;7.00;4.90;;;;;;;19.56;75.83;99058.27;79359;1300;3021312;-58
2023/05/24 02:52:02;;;;;;;6.80;5.40;;;;;;;19.46;75.64;99060.81;79263;1296;3011628;-60
2023/05/24 02:54:31;;;;;;;8.20;5.60;;;;;;;19.25;76.62;99063.62;78160;1300;3025890;-62
2023/05/24 02:56:57;;;;;;;10.10;6.30;;;;;;;19.08;77.13;99069.42;79235;1300;3020514;-62
2023/05/24 02:59:24;;;;;;;12.10;6.80;;;;;;;18.94;77.83;99071.61;79220;1301;3011675;-60
2023/05/24 03:01:52;;;;;;;5.80;3.60;;;;;;;18.77;78.53;99071.98;78205;1300;3026081;-61
2023/05/24 03:04:19;;;;;;;5.60;4.20;;;;;;;19.21;77.68;99069.41;79325;1301;3012830;-61
2023/05/24 03:06:46;;;;;;;8.20;4.60;;;;;;;19.59;75.91;99069.34;79179;1300;3013100;-63
2023/05/24 03:09:15;;;;;;;11.30;6.10;;;;;;;19.67;75.38;99070.33;77935;1298;3026630;-59
2023/05/24 03:11:42;;;;;;;8.40;6.00;;;;;;;19.52;75.90;99074.56;79407;1301;3014018;-59
2023/05/24 03:14:09;;;;;;;7.50;5.90;;;;;;;19.35;76.25;99070.40;79117;1295;3013257;-60
2023/05/24 03:16:40;;;;;;;8.90;6.10;;;;;;;19.22;76.55;99070.55;78038;1298;3052911;-61
2023/05/24 03:19:07;;;;;;;7.60;4.70;;;;;;;19.08;77.22;99075.48;79253;1295;3015444;-61
2023/05/24 03:21:34;;;;;;;6.80;4.50;;;;;;;18.97;77.73;99074.64;79184;1295;3012951;-61
2023/05/24 03:24:04;;;;;;;3.50;2.40;;;;;;;18.92;78.21;99074.68;77943;1296;3049245;-59
2023/05/24 03:26:31;;;;;;;4.90;3.30;;;;;;;19.45;76.64;99071.73;79271;1296;3014897;-58
2023/05/24 03:28:57;;;;;;;5.80;3.60;;;;;;;20.01;74.77;99076.77;79276;1296;3011580;-62
2023/05/24 03:31:30;;;;;;;4.50;3.90;;;;;;;20.11;74.02;99079.48;78057;1300;3053617;-62
2023/05/24 03:33:58;;;;;;;5.90;4.00;;;;;;;20.03;74.11;99075.81;79323;1295;3013792;-60
2023/05/24 03:36:25;;;;;;;6.20;4.80;;;;;;;19.86;74.74;99081.16;79213;1296;3011659;-61
2023/05/24 03:38:54;;;;;;;8.60;4.70;;;;;;;19.74;75.37;99081.80;78012;1300;3049496;-59
2023/05/24 03:41:21;;;;;;;6.90;4.60;;;;;;;19.61;75.70;99078.46;79386;1296;3014737;-61
2023/05/24 03:43:48;;;;;;;5.90;4.70;;;;;;;19.53;76.48;99074.60;79313;1298;3011710;-62
2023/05/24 03:46:18;;;;;;;3.40;2.60;;;;;;;19.49;76.71;99074.81;78009;1300;3052892;-61
2023/05/24 03:48:44;;;;;;;3.80;2.80;;;;;;;19.99;75.15;99079.91;79264;1295;3013153;-60
2023/05/24 03:51:11;;;;;;;4.90;3.50;;;;;;;20.51;72.91;99082.05;79304;1297;3011575;-59
2023/05/24 03:53:39;;;;;;;5.50;3.80;;;;;;;20.63;72.21;99076.52;77899;1301;3028621;-63
2023/05/24 03:56:06;;;;;;;5.10;3.90;;;;;;;20.54;72.28;99073.66;79151;1297;3012902;-60
2023/05/24 03:58:33;;;;;;;5.60;4.10;;;;;;;20.34;72.71;99068.95;79174;1298;3011619;-60
2023/05/24 04:01:01;;;;;;;5.90;4.20;;;;;;;20.09;73.42;99059.75;77958;1300;3028485;-60
2023/05/24 04:03:28;;;;;;;8.60;4.80;;;;;;;19.88;74.25;99055.11;79322;1295;3012952;-60
2023/05/24 04:05:55;;;;;;;7.30;5.20;;;;;;;19.87;74.42;99055.85;79113;1296;3011443;-61
2023/05/24 04:08:23;;;;;;;6.50;4.50;;;;;;;19.81;74.41;99057.83;78000;1300;3048633;-61
2023/05/24 04:10:50;;;;;;;3.30;2.30;;;;;;;19.74;74.78;99066.73;79249;1295;3013934;-60
2023/05/24 04:13:16;;;;;;;4.60;3.00;;;;;;;20.23;73.62;99067.77;79363;1297;3013250;-60
2023/05/24 04:15:44;;;;;;;5.40;4.10;;;;;;;20.70;71.87;99071.17;78003;1301;3027605;-62
2023/05/24 04:18:11;;;;;;;5.30;3.90;;;;;;;20.73;71.52;99073.08;79432;1300;3020824;-61
2023/05/24 04:20:40;;;;;;;8.00;5.10;;;;;;;20.64;71.90;99074.79;79232;1297;3011719;-61
2023/05/24 04:23:07;;;;;;;7.70;5.90;;;;;;;20.49;72.56;99075.66;77867;1302;3049567;-60
2023/05/24 04:25:34;;;;;;;8.80;6.30;;;;;;;20.41;72.90;99078.49;79229;1300;3013568;-62
2023/05/24 04:28:03;;;;;;;8.70;6.10;;;;;;;20.32;73.31;99082.48;79231;1300;3011647;-60
2023/05/24 04:30:32;;;;;;;9.80;6.70;;;;;;;20.20;73.77;99083.73;78073;1300;3052633;-62
2023/05/24 04:32:59;;;;;;;11.90;7.50;;;;;;;20.11;74.55;99079.04;79407;1300;3013493;-61
2023/05/24 04:35:28;;;;;;;9.40;4.00;;;;;;;20.06;75.35;99078.72;79221;1297;3011856;-62
2023/05/24 04:37:58;;;;;;;7.10;4.60;;;;;;;20.59;74.00;99077.66;77980;1298;3050023;-63
2023/05/24 04:40:25;;;;;;;10.70;4.70;;;;;;;21.14;71.73;99081.61;79290;1297;3011731;-62
2023/05/24 04:42:51;;;;;;;10.90;5.30;;;;;;;21.30;71.05;99080.73;79314;1296;3011689;-59
2023/05/24 04:45:19;;;;;;;12.80;7.00;;;;;;;21.17;71.21;99079.34;78011;1300;3052241;-62
2023/05/24 04:47:46;;;;;;;13.50;7.90;;;;;;;21.05;71.54;99076.60;79309;1300;3013474;-62
2023/05/24 04:50:13;;;;;;;10.50;7.60;;;;;;;20.92;71.85;99075.20;79145;1300;3013241;-61
2023/05/24 04:52:41;;;;;;;10.90;7.80;;;;;;;20.80;72.41;99078.65;77997;1300;3028126;-60
2023/05/24 04:55:09;;;;;;;12.00;8.20;;;;;;;20.70;72.60;99077.33;79243;1297;3018685;-61
2023/05/24 04:57:36;;;;;;;17.90;10.00;;;;;;;20.65;72.75;99076.08;79288;1298;3011901;-62
2023/05/24 05:00:06;;;;;;;12.20;9.00;;;;;;;20.62;72.58;99076.98;78202;1300;3052881;-60
2023/05/24 05:02:33;;;;;;;9.30;5.90;;;;;;;20.59;72.93;99078.20;79386;1297;3011854;-58
2023/05/24 05:05:02;;;;;;;14.70;8.20;;;;;;;21.17;71.76;99079.90;78717;1295;3011745;-59
2023/05/24 05:07:29;;;;;;;17.10;8.70;;;;;;;21.75;69.90;99080.36;79447;1295;3013476;-61
2023/05/24 05:09:56;;;;;;;15.80;9.80;;;;;;;21.86;68.84;99086.20;79308;1296;3013021;-63
2023/05/24 05:12:24;;;;;;;16.50;12.00;;;;;;;21.73;69.24;99088.19;78097;1301;3049883;-62
2023/05/24 05:14:51;;;;;;;16.10;12.60;;;;;;;21.56;69.92;99090.48;79443;1298;3013991;-60
2023/05/24 05:17:18;;;;;;;17.40;12.50;;;;;;;21.38;70.28;99089.96;79327;1296;3011552;-62
2023/05/24 05:19:46;;;;;;;17.30;12.10;;;;;;;21.27;70.58;99088.51;78164;1298;3026377;-62
2023/05/24 05:22:13;;;;;;;18.60;12.60;;;;;;;21.20;70.76;99088.90;79389;1295;3013589;-60
2023/05/24 05:24:40;;;;;;;23.10;12.90;;;;;;;21.20;70.76;99087.35;79303;1295;3011447;-62
2023/05/24 05:27:07;;;;;;;16.50;11.80;;;;;;;21.09;70.84;99087.35;78098;1297;3026305;-61
2023/05/24 05:29:34;;;;;;;22.00;13.70;;;;;;;21.08;70.94;99091.55;79247;1300;3012935;-61
2023/05/24 05:32:00;;;;;;;15.20;8.90;;;;;;;21.01;71.08;99092.34;79168;1298;3011695;-61
2023/05/24 05:34:28;;;;;;;13.10;8.30;;;;;;;21.52;70.47;99100.02;77973;1297;3026410;-61
2023/05/24 05:36:55;;;;;;;17.80;9.90;;;;;;;22.11;68.45;99103.76;79148;1298;3013001;-60
2023/05/24 05:39:22;;;;;;;14.80;10.00;;;;;;;22.16;66.97;99104.23;79243;1294;3011603;-62
2023/05/24 05:41:50;;;;;;;16.90;9.70;;;;;;;22.06;67.21;99112.06;78135;1300;3026510;-60
2023/05/24 05:44:16;;;;;;;12.40;8.90;;;;;;;21.91;67.37;99106.02;79270;1299;3013427;-60
2023/05/24 05:46:44;;;;;;;13.80;8.30;;;;;;;21.71;68.40;99102.70;79267;1297;3011642;-61
2023/05/24 05:49:14;;;;;;;9.90;6.70;;;;;;;21.51;69.11;99103.21;78199;1299;3052216;-60
2023/05/24 05:51:41;;;;;;;9.40;6.00;;;;;;;21.35;69.42;99100.83;79331;1295;3011980;-61
2023/05/24 05:54:13;;;;;;;7.70;5.60;;;;;;;21.17;69.89;99103.21;79279;1298;3011557;-60
2023/05/24 05:56:44;;;;;;;12.50;6.40;;;;;;;21.09;70.49;99108.34;78167;1296;3048980;-62
2023/05/24 05:59:11;;;;;;;16.30;7.50;;;;;;;21.06;71.22;99110.15;79306;1299;3011701;-61
2023/05/24 06:01:40;;;;;;;9.50;7.60;;;;;;;21.05;71.79;99113.09;77956;1299;3026462;-60
2023/05/24 06:04:06;;;;;;;7.20;4.30;;;;;;;21.02;72.30;99111.39;79413;1300;3011643;-64
2023/05/24 06:06:33;;;;;;;13.30;5.50;;;;;;;21.69;70.17;99110.95;79177;1296;3011559;-59
2023/05/24 06:09:01;;;;;;;5.80;4.60;;;;;;;22.14;68.19;99109.13;78102;1297;3048847;-60
2023/05/24 06:11:28;;;;;;;7.90;5.30;;;;;;;22.27;67.40;99109.23;79487;1296;3013404;-60
2023/05/24 06:13:54;;;;;;;7.40;4.90;;;;;;;22.23;66.60;99114.98;79130;1297;3011783;-60
2023/05/24 06:16:22;;;;;;;7.50;4.80;;;;;;;22.14;66.82;99117.69;78142;1300;3013753;-61
2023/05/24 06:18:48;;;;;;;10.80;5.40;;;;;;;22.04;67.61;99121.88;79331;1299;3011664;-60
2023/05/24 06:21:15;;;;;;;8.10;5.40;;;;;;;21.84;68.48;99122.45;79349;1297;3011786;-61
2023/05/24 06:23:44;;;;;;;9.10;5.40;;;;;;;21.73;69.05;99124.73;78247;1296;3026061;-61
2023/05/24 06:26:11;;;;;;;7.30;5.90;;;;;;;21.63;69.91;99130.23;79441;1297;3013809;-69
2023/05/24 06:28:38;;;;;;;8.20;6.00;;;;;;;21.54;70.30;99133.85;79393;1295;3012044;-59
2023/05/24 06:31:06;;;;;;;9.00;5.90;;;;;;;21.51;70.65;99136.98;78097;1300;3051888;-64
2023/05/24 06:33:33;;;;;;;12.80;6.80;;;;;;;21.49;71.30;99135.10;79251;1299;3013227;-62
2023/05/24 06:36:00;;;;;;;5.20;3.70;;;;;;;21.56;71.64;99133.98;79297;1300;3011644;-60
2023/05/24 06:38:27;;;;;;;5.00;4.10;;;;;;;22.20;69.60;99134.63;77949;1296;3028290;-61
2023/05/24 06:40:54;;;;;;;11.20;5.00;;;;;;;22.80;67.81;99132.77;79278;1296;3013691;-60
2023/05/24 06:43:20;;;;;;;8.80;5.50;;;;;;;22.99;66.78;99131.52;79264;1300;3011383;-60
2023/05/24 06:45:49;;;;;;;7.50;5.30;;;;;;;22.86;66.95;99128.09;78064;1299;3026086;-61
2023/05/24 06:48:16;;;;;;;7.00;5.10;;;;;;;22.64;67.77;99133.48;79256;1297;3013460;-62
2023/05/24 06:50:43;;;;;;;9.70;6.10;;;;;;;22.36;68.60;99137.42;79220;1300;3013214;-63
2023/05/24 06:53:11;;;;;;;6.60;5.70;;;;;;;22.16;69.64;99138.16;77995;1296;3048003;-60
2023/05/24 06:55:38;;;;;;;10.40;5.40;;;;;;;22.01;70.06;99137.45;79327;1296;3013047;-59
2023/05/24 06:58:05;;;;;;;6.50;5.30;;;;;;;21.88;70.38;99138.63;79472;1299;3011824;-59
2023/05/24 07:00:34;;;;;;;12.00;6.30;;;;;;;21.73;71.13;99137.84;78139;1295;3053558;-61
2023/05/24 07:03:00;;;;;;;10.70;6.20;;;;;;;21.55;72.71;99143.55;79203;1297;3013391;-59
2023/05/24 07:05:27;;;;;;;7.70;4.20;;;;;;;21.40;75.55;99139.63;79156;1297;3011636;-61
2023/05/24 07:07:55;;;;;;;12.20;5.40;;;;;;;21.84;74.71;99142.63;78412;1299;3025291;-58
2023/05/24 07:10:22;;;;;;;10.60;6.50;;;;;;;22.18;73.54;99141.23;79244;1297;3018516;-62
2023/05/24 07:12:48;;;;;;;10.00;6.80;;;;;;;22.31;73.98;99146.34;79264;1297;3013014;-61
2023/05/24 07:15:16;;;;;;;9.20;6.80;;;;;;;22.34;74.26;99142.30;78089;1300;3029376;-60
2023/05/24 07:17:43;;;;;;;11.40;7.80;;;;;;;22.30;74.56;99140.63;79132;1297;3018997;-64
2023/05/24 07:20:10;;;;;;;16.60;11.30;;;;;;;22.24;75.00;99137.52;79383;1295;3014117;-61
2023/05/24 07:22:39;;;;;;;18.80;13.10;;;;;;;22.21;73.70;99125.08;78025;1295;3027485;-63
2023/05/24 07:25:06;;;;;;;18.40;14.30;;;;;;;22.20;73.02;99123.17;79325;1299;3013712;-63
2023/05/24 07:27:34;;;;;;;11.70;7.30;;;;;;;22.36;72.92;99122.06;79175;1298;3013406;-63
2023/05/24 07:30:03;;;;;;;16.00;8.60;;;;;;;23.06;71.29;99119.54;77994;1299;3052963;-70
2023/05/24 07:32:32;;;;;;;14.60;9.40;;;;;;;23.71;68.08;99122.50;79454;1299;3013322;-64
2023/05/24 07:35:02;;;;;;;20.70;12.40;;;;;;;24.04;67.28;99124.92;79036;1297;3013526;-64
2023/05/24 07:37:29;;;;;;;17.70;11.60;;;;;;;24.06;66.29;99123.73;79170;1297;3013232;-63
2023/05/24 07:39:56;;;;;;;18.40;13.50;;;;;;;24.04;66.74;99124.98;79180;1297;3013038;-63
2023/05/24 07:42:24;;;;;;;19.30;12.80;;;;;;;23.94;66.34;99130.44;77962;1300;3049726;-64
2023/05/24 07:44:50;;;;;;;18.50;11.40;;;;;;;23.71;65.50;99127.98;79405;1300;3013422;-64
2023/05/24 07:47:17;;;;;;;21.00;11.60;;;;;;;23.59;65.46;99125.72;79315;1300;3011638;-63
2023/05/24 07:49:45;;;;;;;14.30;8.80;;;;;;;23.45;64.09;99130.91;78162;1297;3027470;-63
2023/05/24 07:52:12;;;;;;;9.10;6.40;;;;;;;23.45;63.97;99126.11;79225;1297;3020768;-63
2023/05/24 07:54:39;;;;;;;11.50;6.80;;;;;;;23.45;63.89;99127.80;79407;1300;3011520;-63
2023/05/24 07:57:07;;;;;;;13.10;8.10;;;;;;;23.43;64.45;99124.64;78066;1296;3028638;-61
2023/05/24 07:59:34;;;;;;;11.00;7.20;;;;;;;23.50;65.34;99120.61;79436;1300;3012927;-63
2023/05/24 08:02:04;;;;;;;10.40;5.80;;;;;;;23.59;64.89;99118.89;79178;1299;3011946;-66
2023/05/24 08:04:32;;;;;;;7.90;4.60;;;;;;;23.67;64.62;99119.93;78063;1296;3050758;-64
2023/05/24 08:07:01;;;;;;;5.90;3.60;;;;;;;23.74;63.34;99123.70;79209;1297;3013681;-63
2023/05/24 08:09:28;;;;;;;8.10;4.50;;;;;;;23.75;63.26;99120.34;79252;1296;3011694;-63
2023/05/24 08:11:56;;;;;;;6.00;3.40;;;;;;;23.86;63.80;99115.89;78010;1300;3050248;-63
2023/05/24 08:14:23;;;;;;;7.20;4.40;;;;;;;23.91;63.81;99116.66;79293;1300;3018547;-63
2023/05/24 08:16:51;;;;;;;5.60;4.40;;;;;;;23.86;63.07;99116.42;79374;1299;3011663;-64
2023/05/24 08:19:19;;;;;;;6.80;4.20;;;;;;;23.76;63.41;99111.00;77989;1297;3052721;-63
2023/05/24 08:21:46;;;;;;;8.70;4.40;;;;;;;23.68;63.05;99109.10;79342;1296;3013304;-62
2023/05/24 08:24:13;;;;;;;5.70;3.30;;;;;;;23.64;62.83;99108.14;79139;1296;3013443;-64
2023/05/24 08:26:44;;;;;;;6.40;3.90;;;;;;;23.58;63.62;99109.79;77955;1300;3049856;-63
2023/05/24 08:29:10;;;;;;;6.00;3.70;;;;;;;23.45;64.23;99107.93;79225;1300;3013821;-62
2023/05/24 08:31:37;;;;;;;11.20;4.10;;;;;;;23.40;64.27;99112.27;79221;1297;3012966;-63
2023/05/24 08:34:05;;;;;;;4.70;3.50;;;;;;;23.33;64.62;99108.88;77970;1300;3051766;-64
2023/05/24 08:36:32;;;;;;;9.10;3.60;;;;;;;23.30;65.64;99107.92;79258;1297;3012955;-63
2023/05/24 08:38:59;;;;;;;5.80;3.40;;;;;;;23.31;64.85;99110.83;79177;1297;3011672;-62
2023/05/24 08:41:27;;;;;;;6.50;3.60;;;;;;;23.30;64.50;99115.77;77943;1300;3050246;-63
2023/05/24 08:43:54;;;;;;;6.70;3.40;;;;;;;23.38;64.42;99120.73;79284;1300;3013360;-63
2023/05/24 08:46:20;;;;;;;6.50;2.80;;;;;;;23.54;62.84;99119.22;79145;1295;3012286;-62
2023/05/24 08:48:48;;;;;;;4.60;2.70;;;;;;;23.65;61.50;99116.20;78003;1300;3027915;-63
2023/05/24 08:51:15;;;;;;;10.00;3.20;;;;;;;23.75;61.38;99111.45;79239;1300;3013391;-65
2023/05/24 08:53:47;;;;;;;7.80;3.10;;;;;;;23.88;60.57;99116.66;79024;1303;3011949;-66
2023/05/24 08:56:16;;;;;;;7.10;2.90;;;;;;;23.99;59.74;99109.34;77970;1300;3050259;-63
2023/05/24 08:58:43;;;;;;;5.90;2.90;;;;;;;24.03;59.14;99108.93;79710;1300;3013353;-62
2023/05/24 09:01:13;;;;;;;8.10;3.20;;;;;;;24.15;59.28;99109.30;79267;1300;3011308;-64
2023/05/24 09:03:42;;;;;;;5.60;2.60;;;;;;;24.11;59.05;99112.92;77951;1300;3051427;-63
2023/05/24 09:06:10;;;;;;;7.10;3.50;;;;;;;24.22;59.12;99115.61;79502;1296;3013656;-63
2023/05/24 09:08:39;;;;;;;10.50;4.50;;;;;;;24.26;59.78;99113.38;78705;1298;3011645;-63
2023/05/24 09:11:06;;;;;;;12.20;4.20;;;;;;;24.32;59.38;99108.24;79141;1297;3021403;-64
2023/05/24 09:13:34;;;;;;;8.90;3.50;;;;;;;24.35;59.12;99105.02;79283;1297;3011358;-63
2023/05/24 09:16:02;;;;;;;10.00;3.90;;;;;;;24.41;59.28;99103.00;78115;1300;3052150;-64
2023/05/24 09:18:29;;;;;;;8.10;4.30;;;;;;;24.48;59.22;99101.70;79375;1300;3013575;-61
2023/05/24 09:20:55;;;;;;;7.80;4.00;;;;;;;24.45;58.94;99104.32;79271;1300;3012941;-61
2023/05/24 09:23:25;;;;;;;8.90;3.70;;;;;;;24.58;58.94;99103.83;78231;1297;3028592;-64
2023/05/24 09:25:51;;;;;;;8.50;4.10;;;;;;;24.77;58.69;99100.48;79297;1296;3011594;-62
2023/05/24 09:28:19;;;;;;;13.00;4.10;;;;;;;24.90;57.59;99102.54;79310;1300;3011681;-64
2023/05/24 09:31:01;;;;;;;11.30;3.50;;;;;;;24.98;57.26;99101.44;78018;1300;3052228;-63
2023/05/24 09:33:33;;;;;;;9.80;3.90;;;;;;;25.13;57.33;99100.11;78049;1299;3069109;-64
2023/05/24 09:36:01;;;;;;;13.60;4.30;;;;;;;25.07;58.01;99103.45;79309;1297;3013326;-65
2023/05/24 09:38:29;;;;;;;10.40;3.70;;;;;;;24.93;58.27;99104.67;78399;1296;3056012;-63
2023/05/24 09:41:04;;;;;;;7.40;3.60;;;;;;;24.84;58.47;99101.78;79482;1297;3013201;-60
2023/05/24 09:43:38;;;;;;;11.30;3.70;;;;;;;24.76;58.72;99097.84;78147;1300;3050457;-65
2023/05/24 09:46:04;;;;;;;5.40;3.30;;;;;;;24.61;58.41;99097.02;79225;1298;3011875;-63
2023/05/24 09:48:32;;;;;;;10.50;3.50;;;;;;;24.61;58.45;99094.78;78025;1300;3053553;-62
2023/05/24 09:51:06;;;;;;;13.90;3.40;;;;;;;24.68;58.85;99096.34;79155;1300;3013073;-63
2023/05/24 09:53:34;;;;;;;9.50;4.10;;;;;;;24.81;58.52;99097.92;78043;1297;3057534;-64
2023/05/24 09:56:04;;;;;;;11.00;3.70;;;;;;;24.86;57.63;99102.34;79286;1297;3015540;-64
2023/05/24 09:58:33;;;;;;;8.90;3.70;;;;;;;24.89;56.98;99103.27;78227;1300;3049923;-62
2023/05/24 10:01:07;;;;;;;7.10;3.60;;;;;;;24.91;56.77;99109.33;79389;1297;3019165;-64
2023/05/24 10:03:36;;;;;;;;;;;;;;;25.01;56.52;99112.21;78016;1300;3069576;-63
2023/05/24 10:06:06;;;;;;;6.70;3.40;;;;;;;24.93;57.17;99105.33;79360;1297;3015742;-66
2023/05/24 10:08:35;;;;;;;7.40;3.40;;;;;;;24.97;56.84;99109.73;77981;1300;3048292;-65
2023/05/24 10:11:03;;;;;;;9.40;3.40;;;;;;;25.01;56.39;99114.33;79430;1298;3013757;-65
2023/05/24 10:13:35;;;;;;;6.80;2.70;;;;;;;24.75;56.43;99115.47;78790;1300;3011749;-65
2023/05/24 10:16:02;;;;;;;12.70;3.00;;;;;;;24.48;56.56;99121.16;79177;1298;3013166;-64
2023/05/24 10:18:31;;;;;;;9.60;3.00;;;;;;;24.02;57.70;99126.13;78817;1300;3011573;-65
2023/05/24 10:20:59;;;;;;;9.70;3.10;;;;;;;23.74;59.69;99128.03;79513;1296;3012958;-65
2023/05/24 10:23:28;;;;;;;16.90;4.00;;;;;;;23.38;61.76;99131.48;79432;1294;3012078;-66
2023/05/24 10:26:07;;;;;;;13.60;3.20;;;;;;;23.12;63.39;99138.94;78136;1299;3049306;-64
2023/05/24 10:28:51;;;;;;;9.00;3.50;;;;;;;22.94;64.78;99140.58;78054;1300;3053497;-66
2023/05/24 10:31:31;;;;;;;8.50;2.90;;;;;;;22.76;65.78;99141.10;78154;1299;3050549;-66
2023/05/24 10:34:00;;;;;;;13.30;3.50;;;;;;;22.55;66.31;99149.77;78059;1299;3053012;-65
2023/05/24 10:36:27;;;;;;;9.00;3.80;;;;;;;22.49;66.71;99153.98;79336;1299;3013323;-65
2023/05/24 10:38:54;;;;;;;7.20;3.10;;;;;;;22.34;68.03;99152.95;77314;1297;3069208;-67
2023/05/24 10:41:25;;;;;;;10.50;3.20;;;;;;;22.18;69.25;99154.27;78033;1302;3056213;-64
2023/05/24 10:43:52;;;;;;;8.90;3.70;;;;;;;21.95;71.07;99152.61;79291;1299;3013102;-63
2023/05/24 10:46:21;;;;;;;10.30;4.60;;;;;;;21.93;71.48;99154.83;78035;1300;3027256;-63
2023/05/24 10:49:00;;;;;;;9.30;4.50;;;;;;;21.84;73.19;99158.55;79469;1300;3013177;-64
2023/05/24 10:51:37;;;;;;;8.60;2.70;;;;;;;21.72;74.36;99157.48;78079;1299;3052341;-64
2023/05/24 10:54:17;;;;;;;8.00;2.80;;;;;;;22.32;71.28;99160.79;78059;1295;3069645;-64
2023/05/24 10:56:47;;;;;;;11.60;2.80;;;;;;;22.73;70.03;99152.39;78051;1301;3052017;-68
2023/05/24 10:59:44;;;;;;;8.00;2.70;;;;;;;22.70;70.07;99148.17;79322;1294;3013387;-67
2023/05/24 11:02:13;;;;;;;10.50;3.70;;;;;;;22.47;70.69;99143.29;78031;1297;3048737;-63
2023/05/24 11:04:44;;;;;;;12.40;3.50;;;;;;;22.27;70.61;99145.77;79341;1294;3013141;-65
2023/05/24 11:07:14;;;;;;;9.40;4.10;;;;;;;22.14;69.91;99141.92;78058;1300;3050654;-65
2023/05/24 11:09:45;;;;;;;13.60;4.00;;;;;;;21.97;71.59;99135.45;79286;1300;3013965;-64
2023/05/24 11:12:16;;;;;;;10.00;4.00;;;;;;;21.92;72.59;99135.33;78072;1300;3067152;-65
2023/05/24 11:14:51;;;;;;;10.60;4.40;;;;;;;21.89;73.32;99134.73;79279;1299;3011667;-65
2023/05/24 11:17:22;;;;;;;6.10;2.90;;;;;;;21.92;73.80;99136.23;78087;1299;3056713;-64
2023/05/24 11:19:50;;;;;;;7.40;3.00;;;;;;;22.51;72.82;99131.14;79501;1296;3012036;-63
2023/05/24 11:22:20;;;;;;;7.90;3.70;;;;;;;23.03;71.58;99130.54;78354;1298;3052073;-70